Latest Observation

42 Stations

15 Minute Data | America/Los_Angeles
as of 9/4/26 3:20 PM PDT
Station Date Time Temp (°F) RH (%) Dew Pt (°F) Wind Spd (mph) Wind Dir (°) Wind Gust (mph) Latest Rain (In) Daily Rain (In) Daily Min Temp (°F) Daily Max Temp (°F) Daily Max Wind (mph)
Elk Mt. Farm 8/13/26 1500 85.6   7.4 - - - - - - - 51.4   1.1 85.6   7.4 -
Upper Lake 9/4/26 1515 72.6   11.9 33   49 41.7   13.4 3.7 WSW | 237 9.5   3.3 0.00 0.00 42.1   16.1 73.6   5.2 12.4   3.3
Scotts Valley 9/4/26 1515 74.6   10.1 34   30 44.6   7.4 3.7 WSW | 252 11.2   1.3 0.00 0.00 34.8   23.5 75.5   6.1 12.2   1.0
Scotts Valley-South (Bella Vista) 9/4/26 1515 72.4   8.7 32   29 41.2   9.0 5.0 NNW | 341 9.6   2.5 0.00 0.00 38.8   18.9 73.1   4.5 11.3   2.4
Kelseyville 9/4/26 1515 72.8   5.8 31   24 40.6   10.0 6.6 N | 354 11.6   3.3 0.00 0.00 41.1   17.5 73.7   2.9 14.2   3.3
Kelseyville Remote 9/4/26 1515 73.3   6.1 24   25 34.4   12.8 - - - 0.00 0.00 42.2   17.1 73.8   3.7 -
Kelseyville (Clark Drive) 9/4/26 1515 73.7   6.3 - - - - - 0.00 0.00 41.2   15.5 75.0   4.2 -
Kelsey Bench (Oaklea) 9/4/26 1515 72.2   7.3 28   27 37.4   11.3 2.8 N | 355 6.3   8.3 0.00 0.00 43.7   12.0 73.2   4.9 15.4   0.6
Smith Lane (Kelseyville-South) 9/4/26 1515 76.3   9.4 27   27 40.3   9.7 4.4 WSW | 239 9.9   2.8 0.00 0.01 39.0   19.6 76.8   6.0 12.1   2.8
Bell Hill-West 9/4/26 1515 73.1   6.8 35   28 43.8   9.5 4.9 SW | 223 9.8   6.0 0.00 0.00 41.1   16.2 74.3   4.5 15.8   0.3
High Valley Ridgeline (Brassfield) 9/3/26 1430 64.3   0.5 52   2 46.4   1.6 12.2 WSW | 242 17.9   7.4 0.00 0.01 55.0   3.7 66.3   0.1 20.5   5.3
Wight Way (Adobe Creek) 9/4/26 1500 81.4   14.0 23   28 40.1   8.7 2.3 N | 355 8.0   2.1 0.00 0.01 39.4   16.1 81.4   4.5 14.0   3.8
Ridgeline Top (Brassfield) 9/3/26 1430 66.6   0.4 - - - - - - - 54.8   3.7 69.7   1.1 -
Ridgeline Low (Brassfield) 9/3/26 1430 66.8   0.7 - - - - - - - 56.8   4.6 67.8   0.9 -
Long Valley (Shannon) 6/29/26 1400 84.9   4.6 25   1 44.9   3.2 2.9 ENE | 75 10.2   0.4 0.00 0.00 46.4   0.4 86.9   6.5 13.7   1.8
High Valley Winery 9/3/26 1430 65.6   2.0 49   1 45.9   1.2 9.6 WSW | 238 17.0   7.0 0.00 0.01 57.3   4.2 67.3   2.2 17.0   1.1
Round Mtn Rd. 9/4/26 0630 42.7   16.1 - - - - - - - 42.4   14.6 51.6   7.2 -
Circle O 9/4/26 1515 71.1   6.7 - - - - - - - 38.9   17.1 71.7   2.0 -
Robertsbridge Vineyards 9/4/26 1515 74.2   8.7 25   29 36.6   11.8 - - - - - 38.7   17.6 74.6   4.0 -
Urgency Vineyard 9/4/26 1515 72.8   7.0 25   26 34.5   12.5 2.7 WNW | 302 8.3   4.5 0.00 0.00 43.2   12.2 73.3   4.6 11.4   2.0
Red Hills (Beckstoffer) 9/4/26 1515 73.0   6.7 25   27 35.4   13.0 - - - 0.00 0.00 41.4   14.1 73.4   4.5 -
Winters (Shannon) 9/4/26 1515 71.5   6.3 27   21 36.2   9.0 4.8 WNW | 302 11.1   0.7 0.00 0.00 37.1   12.9 72.3   4.8 14.9   1.4
Secret Pond (Shannon) 9/4/26 1515 70.2   5.9 30   19 37.1   7.4 2.9 NW | 322 8.8   9.4 0.00 0.00 41.4   10.4 70.6   3.4 16.4   1.9
Rolling Knolls (Shannon) 9/4/26 1515 72.4   5.6 33   14 41.8   4.0 1.8 E | 90 5.3   6.9 0.00 0.00 44.8   6.1 72.5   4.4 13.0   2.8
Lower Lake 9/4/26 1515 71.6   5.5 32   17 40.4   6.3 5.9 NE | 55 10.3   6.6 0.00 0.00 47.0   5.8 72.6   4.2 14.5   3.4
Adamson Ranch 9/4/26 1515 72.2   2.8 31   18 39.7   9.4 3.2 E | 82 8.3   1.5 0.00 0.00 40.6   16.3 75.3   4.5 10.1   7.0
Middletown (Diamond D) 9/4/26 1515 74.4   7.6 36   30 45.8   9.2 4.2 WNW | 303 12.5   4.7 0.00 0.00 42.1   15.5 74.9   6.3 13.2   4.1
Middletown-West (Domaine Helena) 9/4/26 1515 73.7   7.2 33   35 42.7   12.8 7.9 SW | 214 15.8   1.4 0.00 0.00 39.0   16.7 75.6   7.8 16.1   4.1
Middletown-South 9/4/26 1515 75.2   9.2 31   35 42.2   11.9 3.7 SW | 232 10.3   5.1 0.00 0.00 44.0   12.8 76.0   7.2 12.5   5.3
Jim Davis (Langtry) 9/4/26 1515 73.4   5.5 41   19 48.4   5.4 3.9 WSW | 248 9.3   3.2 0.00 0.00 46.0   12.0 74.8   5.8 13.5   6.5
Napa Valley Basin 9/4/26 1515 77.1   7.7 34   25 46.5   7.8 4.0 WSW | 240 10.8   2.3 0.00 0.00 39.4   14.8 78.3   7.9 13.2   6.6
Lower Bohn 9/4/26 1515 74.3   5.8 40   20 48.4   5.8 5.1 SE | 133 12.6   5.4 0.00 0.00 36.9   20.7 76.9   6.9 14.3   5.6
Upper Bohn-North 9/4/26 1515 74.8   6.3 33   26 43.6   10.1 3.6 S | 180 10.4   1.8 0.00 0.00 44.8   11.6 79.2   8.0 16.7   2.7
Snell Peak Blk#9 9/4/26 1515 75.0   8.4 32   28 43.3   8.9 3.5 SSW | 193 9.4   6.1 0.00 0.00 48.2   7.6 77.1   9.8 13.5   2.0
Coyote Lake West 9/4/26 1515 76.0   8.5 37   24 48.0   5.7 6.6 WSW | 257 11.3   4.9 0.00 0.00 45.0   10.2 76.4   7.9 12.1   4.1
Coyote Lake Northeast 9/4/26 1515 77.1   8.7 37   27 49.2   6.8 - - - - - 46.4   9.4 77.3   7.4 -
Coyote Lake East 9/4/26 1515 77.3   8.5 36   29 48.2   8.2 - - - - - 40.7   11.4 78.2   8.2 -
Morgan Valley 9/4/26 1515 68.2   7.3 43   33 45.1   8.4 3.9 ESE | 102 9.1   10.1 0.00 0.00 48.1   3.5 69.6   7.7 14.3   8.5
Mine Pit North 9/4/26 1515 73.5 30 40.5 8.6 S | 188 18.6 - - 46.2 74.6 18.6
Mine Pit South 9/4/26 1515 73.6   9.8 28   36 38.4   13.0 6.6 WSW | 256 17.5   3.4 0.00 0.00 50.2   2.3 75.3   9.9 21.6   4.1
Cow Mountain 9/4/26 1515 58.9   9.3 - - 7.3 W | 263 18.0   1.1 0.00 0.01 43.6   5.5 60.4   7.0 20.4   6.1
Ukiah-SE (Ruddick) 9/4/26 1515 74.4   11.9 32   40 42.8   10.8 4.3 NNW | 344 9.6   1.2 0.00 0.00 42.1   14.8 75.4   6.7 13.4   3.2
Max     81.4 43 49.2 8.6 - 18.6 0.00 0.01 50.2 81.4 21.6
Avg     73.4 32 41.8 4.6 - 10.8 0.00 - - - -
Min     58.9 23 34.4 1.8 - 5.3 0.00 0.00 34.8 60.4 10.1